Time;durP1;ratioP1;P1;durP2;ratioP2;P2;SDS_P1;SDS_P2;PMS_P1;PMS_P2;Temp;Humidity;BMP_temperature;BMP_pressure;BME280_temperature;BME280_humidity;BME280_pressure;Samples;Min_cycle;Max_cycle;Signal;HPM_P1;HPM_P2
2023/06/24 09:34:13;;;;;;;8.57;7.20;;;;;;;20.09;100.00;102425.53;5079883;27;20562;-80
2023/06/24 09:36:42;;;;;;;7.97;7.17;;;;;;;19.93;100.00;102284.50;5070560;28;20900;-74
2023/06/24 09:39:08;;;;;;;9.30;7.03;;;;;;;22.22;100.00;102583.97;5069999;28;20437;-75
2023/06/24 09:41:34;;;;;;;14.63;6.10;;;;;;;19.89;100.00;102160.78;5099322;27;20449;-77
2023/06/24 09:44:00;;;;;;;7.67;6.30;;;;;;;20.36;100.00;102169.97;5064428;28;20483;-80
2023/06/24 09:46:27;;;;;;;9.73;6.47;;;;;;;21.16;100.00;102277.84;5066477;28;20205;-76
2023/06/24 09:48:53;;;;;;;12.77;7.53;;;;;;;18.18;100.00;101790.88;5066104;28;20956;-74
2023/06/24 09:51:19;;;;;;;7.83;6.87;;;;;;;18.05;100.00;101761.97;5067358;28;20465;-74
2023/06/24 09:53:45;;;;;;;11.33;7.30;;;;;;;19.08;100.00;101901.63;5067559;28;20186;-70
2023/06/24 09:56:13;;;;;;;10.03;6.13;;;;;;;23.15;100.00;102483.78;5068369;28;20432;-70
2023/06/24 09:58:41;;;;;;;8.67;6.60;;;;;;;22.88;100.00;102464.31;5071447;28;20477;-69
2023/06/24 10:01:06;;;;;;;8.90;8.00;;;;;;;22.29;100.00;102349.59;5064454;28;20465;-69
2023/06/24 10:03:34;;;;;;;9.43;8.33;;;;;;;23.00;100.00;102438.63;5069635;28;20491;-69
2023/06/24 10:06:01;;;;;;;9.97;7.80;;;;;;;23.08;100.00;102420.97;5069597;28;20191;-68
2023/06/24 10:08:30;;;;;;;9.23;6.80;;;;;;;22.70;100.00;102361.38;5069268;28;20417;-69
2023/06/24 10:10:55;;;;;;;8.80;7.00;;;;;;;22.99;100.00;102381.38;5069031;28;20441;-69
2023/06/24 10:13:21;;;;;;;10.30;8.07;;;;;;;22.27;100.00;102224.09;5071171;28;20401;-68
2023/06/24 10:15:47;;;;;;;9.57;7.03;;;;;;;23.09;100.00;102370.66;5071872;28;20183;-69
2023/06/24 10:18:30;;;;;;;12.30;7.43;;;;;;;23.38;100.00;102355.00;5070439;28;20179;-69
2023/06/24 10:20:56;;;;;;;10.40;7.63;;;;;;;23.27;100.00;102346.88;5070871;28;20345;-68
2023/06/24 10:23:21;;;;;;;9.37;8.00;;;;;;;23.21;100.00;102326.78;5103591;28;20469;-69
2023/06/24 10:25:47;;;;;;;12.63;7.57;;;;;;;23.16;100.00;102323.97;5070182;28;20196;-77
2023/06/24 10:28:13;;;;;;;8.17;6.47;;;;;;;21.97;100.00;102112.31;5070222;28;20232;-81
2023/06/24 10:30:38;;;;;;;12.90;8.07;;;;;;;22.30;100.00;102220.91;5070311;28;20962;-80
2023/06/24 10:33:09;;;;;;;9.90;7.37;;;;;;;22.71;100.00;102265.41;5067551;28;20199;-78
2023/06/24 10:35:41;;;;;;;10.10;5.80;;;;;;;23.28;100.00;102323.88;5068413;28;20209;-79
2023/06/24 10:38:10;;;;;;;8.83;6.33;;;;;;;23.29;100.00;102331.84;5070427;28;20440;-81
2023/06/24 10:40:38;;;;;;;8.57;6.03;;;;;;;22.87;100.00;102265.69;5066679;28;20572;-79
2023/06/24 10:43:25;;;;;;;11.83;6.17;;;;;;;23.26;100.00;102317.81;5067924;28;20519;-80
2023/06/24 10:45:52;;;;;;;7.17;5.30;;;;;;;22.41;100.00;102226.56;5056958;28;20434;-81
2023/06/24 10:48:21;;;;;;;11.67;5.70;;;;;;;23.07;100.00;102319.97;5055325;28;20422;-81
2023/06/24 10:50:47;;;;;;;8.27;4.97;;;;;;;22.10;100.00;102141.22;5055675;28;20439;-81
2023/06/24 10:53:14;;;;;;;6.10;4.73;;;;;;;23.08;100.00;102286.88;5052738;28;20434;-78
2023/06/24 10:55:39;;;;;;;9.03;5.00;;;;;;;22.99;100.00;102291.91;5074097;28;20864;-69
2023/06/24 10:58:09;;;;;;;5.80;4.17;;;;;;;23.04;100.00;102291.19;5050802;28;20440;-71
2023/06/24 11:00:34;;;;;;;7.30;5.43;;;;;;;23.54;100.00;102292.25;5045620;28;20300;-70
2023/06/24 11:03:14;;;;;;;7.93;5.30;;;;;;;23.33;100.00;102281.00;5052510;28;21044;-71
2023/06/24 11:05:42;;;;;;;7.70;5.30;;;;;;;22.93;100.00;102171.66;5052732;28;20418;-71
2023/06/24 11:08:11;;;;;;;7.30;5.90;;;;;;;23.56;100.00;102292.84;5052138;28;20441;-77
2023/06/24 11:10:44;;;;;;;8.43;5.17;;;;;;;23.90;100.00;102315.56;5053407;28;20460;-75
2023/06/24 11:13:10;;;;;;;6.07;4.73;;;;;;;23.82;100.00;102291.34;5053769;28;20449;-74
2023/06/24 11:15:36;;;;;;;7.07;4.97;;;;;;;23.71;100.00;102327.88;5052302;28;20437;-74
2023/06/24 11:18:04;;;;;;;5.67;4.70;;;;;;;23.35;100.00;102300.75;5052481;28;20215;-73
2023/06/24 11:20:30;;;;;;;10.33;6.07;;;;;;;23.60;100.00;102236.47;5051654;28;20675;-76
2023/06/24 11:22:55;;;;;;;4.70;4.10;;;;;;;24.19;100.00;102316.22;5051343;28;20520;-72
2023/06/24 11:25:22;;;;;;;5.90;4.50;;;;;;;24.13;100.00;102311.78;5048108;28;20186;-72
2023/06/24 11:27:49;;;;;;;5.47;4.20;;;;;;;24.01;100.00;102311.91;5050500;28;20691;-73
2023/06/24 11:30:16;;;;;;;9.77;4.30;;;;;;;23.90;100.00;102299.13;5046405;28;20814;-71
2023/06/24 11:32:44;;;;;;;7.47;4.80;;;;;;;24.07;100.00;102302.66;5050487;28;21235;-72
2023/06/24 11:35:12;;;;;;;7.43;4.97;;;;;;;23.95;100.00;102312.88;5082544;28;20528;-71
2023/06/24 11:37:47;;;;;;;7.10;4.63;;;;;;;23.19;100.00;102203.84;5051116;28;21120;-74
2023/06/24 11:40:16;;;;;;;5.67;4.33;;;;;;;24.03;100.00;102297.91;5048737;28;20465;-70
2023/06/24 11:42:44;;;;;;;6.23;4.47;;;;;;;23.67;100.00;102257.13;5052416;28;20844;-71
2023/06/24 11:45:12;;;;;;;5.97;4.30;;;;;;;23.71;100.00;102267.63;5057878;28;20434;-72
2023/06/24 11:47:39;;;;;;;5.50;4.17;;;;;;;23.05;100.00;102198.97;5050843;28;20487;-75
2023/06/24 11:50:09;;;;;;;7.23;4.17;;;;;;;23.69;100.00;102303.44;5084280;28;20491;-77
2023/06/24 11:52:49;;;;;;;6.50;4.23;;;;;;;23.34;100.00;102254.44;5053304;28;20759;-76
2023/06/24 11:55:25;;;;;;;6.90;4.23;;;;;;;23.01;100.00;102195.91;5055401;28;20441;-74
2023/06/24 11:57:54;;;;;;;5.03;3.80;;;;;;;23.34;100.00;102224.31;5053745;28;20428;-74
2023/06/24 12:00:32;;;;;;;5.73;3.73;;;;;;;23.45;100.00;102194.09;5055751;28;20449;-75
2023/06/24 12:03:04;;;;;;;5.30;4.13;;;;;;;23.49;100.00;102224.56;5044313;28;20553;-75
2023/06/24 12:05:33;;;;;;;5.10;3.40;;;;;;;22.95;100.00;102014.44;5053922;28;20440;-74
2023/06/24 12:08:01;;;;;;;6.10;4.13;;;;;;;20.70;100.00;101704.16;5084906;28;20526;-76
2023/06/24 12:10:28;;;;;;;7.50;4.00;;;;;;;19.69;100.00;101575.84;5052143;28;20441;-75
2023/06/24 12:12:55;;;;;;;4.17;3.40;;;;;;;21.97;100.00;102030.34;5050422;28;21019;-76
2023/06/24 12:15:26;;;;;;;5.53;3.83;;;;;;;20.59;100.00;101705.88;5048879;28;20615;-76
2023/06/24 12:17:52;;;;;;;8.30;4.80;;;;;;;23.30;100.00;102089.03;5050947;28;20932;-79
2023/06/24 12:20:18;;;;;;;5.30;4.20;;;;;;;22.25;100.00;101898.31;5050661;28;20534;-77
2023/06/24 12:22:45;;;;;;;6.27;4.17;;;;;;;21.55;100.00;101789.59;5051936;28;20564;-76
2023/06/24 12:25:13;;;;;;;6.90;3.70;;;;;;;23.44;100.00;102098.53;5058740;28;20179;-75
2023/06/24 12:27:41;;;;;;;6.77;4.47;;;;;;;23.88;100.00;102208.13;5051248;28;20793;-72
2023/06/24 12:30:13;;;;;;;4.53;4.03;;;;;;;23.02;100.00;102110.81;5052930;28;20521;-73
2023/06/24 12:32:44;;;;;;;6.17;4.10;;;;;;;22.92;100.00;102116.13;5052191;28;20434;-76
2023/06/24 12:35:10;;;;;;;6.00;3.73;;;;;;;20.39;100.00;101691.81;5060251;28;20875;-79
2023/06/24 12:37:36;;;;;;;6.27;4.40;;;;;;;20.69;100.00;101727.88;5049663;28;20442;-78
2023/06/24 12:40:03;;;;;;;6.00;3.60;;;;;;;20.76;100.00;101772.16;5051626;28;20248;-78
2023/06/24 12:42:29;;;;;;;5.37;4.40;;;;;;;22.94;100.00;102072.94;5051862;28;20277;-80
2023/06/24 12:45:00;;;;;;;5.70;4.30;;;;;;;21.62;100.00;101801.19;5051121;28;20446;-81
2023/06/24 12:47:31;;;;;;;6.27;4.40;;;;;;;21.01;100.00;101704.69;5050557;28;20253;-89
2023/06/24 12:49:57;;;;;;;4.97;4.20;;;;;;;23.20;100.00;102109.72;5053745;28;20449;-78
2023/06/24 12:52:25;;;;;;;6.90;4.63;;;;;;;21.05;100.00;101731.22;5056501;28;20532;-90
2023/06/24 12:54:51;;;;;;;6.97;4.28;;;;;;;20.77;100.00;101648.41;5049323;28;20922;-71
2023/06/24 12:57:16;;;;;;;5.97;4.53;;;;;;;24.64;100.00;102290.44;5048092;28;20199;-72
2023/06/24 12:59:42;;;;;;;6.37;4.50;;;;;;;23.29;100.00;102070.94;5050834;28;20199;-70
2023/06/24 13:02:07;;;;;;;5.00;4.40;;;;;;;23.89;100.00;102174.97;5052558;28;20219;-73
2023/06/24 13:04:33;;;;;;;7.23;4.33;;;;;;;23.97;100.00;102164.66;5048286;28;20643;-73
2023/06/24 13:06:58;;;;;;;6.70;3.97;;;;;;;24.93;100.00;102281.94;5049096;28;20187;-73
2023/06/24 13:09:23;;;;;;;21.90;6.30;;;;;;;24.57;100.00;102224.81;5050544;28;20199;-71
2023/06/24 13:11:50;;;;;;;5.80;5.17;;;;;;;24.46;100.00;102266.94;5050888;28;20590;-68
2023/06/24 13:14:16;;;;;;;6.10;5.40;;;;;;;24.81;100.00;102280.19;5050070;28;20659;-69
2023/06/24 13:16:41;;;;;;;6.30;5.40;;;;;;;25.00;100.00;102293.56;5051369;28;20494;-71
2023/06/24 13:19:07;;;;;;;7.50;5.23;;;;;;;24.27;100.00;102178.72;5050690;28;20195;-70
2023/06/24 13:21:32;;;;;;;11.70;4.80;;;;;;;24.73;100.00;102253.22;5050213;28;20264;-70
2023/06/24 13:23:57;;;;;;;7.30;5.40;;;;;;;24.85;100.00;102283.28;5049463;28;20215;-69
2023/06/24 13:26:24;;;;;;;8.90;5.90;;;;;;;24.91;100.00;102290.47;5050864;28;20229;-68
2023/06/24 13:28:50;;;;;;;6.33;5.33;;;;;;;24.30;100.00;102218.47;5051057;28;20184;-69
2023/06/24 13:31:15;;;;;;;8.30;6.10;;;;;;;24.68;100.00;102241.41;5049161;28;21201;-69
2023/06/24 13:33:41;;;;;;;5.63;4.70;;;;;;;24.34;100.00;102225.94;5050344;28;20190;-69
2023/06/24 13:36:11;;;;;;;6.17;5.13;;;;;;;24.81;100.00;102235.47;5049744;28;20705;-72
2023/06/24 13:38:36;;;;;;;8.60;6.40;;;;;;;24.85;100.00;102249.47;5051714;28;20207;-72
2023/06/24 13:41:03;;;;;;;10.83;7.80;;;;;;;24.66;100.00;102236.16;5050520;28;20484;-71
2023/06/24 13:43:28;;;;;;;6.80;6.00;;;;;;;24.87;100.00;102294.78;5052224;28;20477;-70
2023/06/24 13:45:54;;;;;;;9.47;7.63;;;;;;;23.87;100.00;102199.09;5051230;28;20453;-73
2023/06/24 13:48:19;;;;;;;8.83;6.97;;;;;;;23.93;100.00;102227.38;5050658;28;20184;-71
2023/06/24 13:50:45;;;;;;;10.03;7.27;;;;;;;24.09;100.00;102307.88;5049742;28;20290;-70
2023/06/24 13:53:10;;;;;;;11.60;7.80;;;;;;;23.82;100.00;102303.13;5049007;28;20298;-71
2023/06/24 13:55:36;;;;;;;14.00;7.00;;;;;;;23.47;100.00;102278.75;5049104;28;20190;-70
2023/06/24 13:58:01;;;;;;;11.23;6.80;;;;;;;23.70;100.00;102305.16;5051016;28;21543;-67
2023/06/24 14:00:27;;;;;;;13.30;7.67;;;;;;;24.02;100.00;102370.28;5049290;28;20198;-67
2023/06/24 14:02:53;;;;;;;7.97;6.80;;;;;;;23.75;100.00;102329.03;5050874;28;20211;-67
2023/06/24 14:05:18;;;;;;;10.30;8.30;;;;;;;24.03;100.00;102356.31;5051901;28;20190;-68
2023/06/24 14:07:44;;;;;;;11.70;7.60;;;;;;;24.35;100.00;102347.41;5049252;28;20187;-68
2023/06/24 14:10:09;;;;;;;9.20;7.50;;;;;;;24.42;100.00;102341.75;5049050;28;20194;-69
2023/06/24 14:12:35;;;;;;;9.70;6.73;;;;;;;24.32;100.00;102364.38;5050093;28;20710;-69
2023/06/24 14:15:00;;;;;;;8.63;7.07;;;;;;;24.55;100.00;102358.66;5049608;28;20192;-67
2023/06/24 14:17:26;;;;;;;8.40;6.90;;;;;;;24.48;100.00;102371.75;5050746;28;20674;-67
2023/06/24 14:19:52;;;;;;;8.57;6.53;;;;;;;24.31;100.00;102313.38;5084727;28;20219;-69
2023/06/24 14:22:17;;;;;;;9.47;6.80;;;;;;;24.53;100.00;102338.03;5058729;28;20512;-68
2023/06/24 14:24:43;;;;;;;7.17;5.63;;;;;;;24.40;100.00;102311.81;5055203;28;20266;-69
2023/06/24 14:27:09;;;;;;;8.67;6.57;;;;;;;24.13;100.00;102263.25;5053640;28;20198;-70
2023/06/24 14:29:34;;;;;;;9.17;7.30;;;;;;;24.70;100.00;102351.69;5055056;28;20220;-70
2023/06/24 14:32:00;;;;;;;8.43;5.90;;;;;;;24.56;100.00;102327.41;5051581;28;20229;-71
2023/06/24 14:34:25;;;;;;;7.70;5.93;;;;;;;24.48;100.00;102316.06;5049576;28;20191;-68
2023/06/24 14:36:51;;;;;;;6.83;5.70;;;;;;;24.83;100.00;102336.75;5051497;28;20295;-67
2023/06/24 14:39:19;;;;;;;9.27;5.73;;;;;;;24.77;100.00;102325.72;5051533;28;20269;-68
2023/06/24 14:41:44;;;;;;;9.30;5.70;;;;;;;25.01;100.00;102342.69;5050914;28;20206;-68
2023/06/24 14:44:10;;;;;;;9.47;5.37;;;;;;;24.22;100.00;102228.00;5049237;28;20535;-70
2023/06/24 14:46:35;;;;;;;9.23;6.13;;;;;;;24.23;100.00;102258.97;5050839;28;20656;-69
2023/06/24 14:49:01;;;;;;;10.83;5.40;;;;;;;24.56;100.00;102307.34;5053891;28;20194;-74
2023/06/24 14:51:26;;;;;;;8.33;4.10;;;;;;;24.11;100.00;102245.41;5051394;28;20423;-73
2023/06/24 14:53:52;;;;;;;8.27;4.60;;;;;;;24.13;100.00;102240.50;5050567;28;20651;-72
2023/06/24 14:56:17;;;;;;;11.90;5.20;;;;;;;24.43;100.00;102299.53;5054175;28;20183;-73
2023/06/24 14:58:42;;;;;;;7.43;5.23;;;;;;;24.74;100.00;102333.63;5052821;28;20211;-72
2023/06/24 15:01:08;;;;;;;5.10;4.20;;;;;;;24.36;100.00;102261.34;5050503;28;20203;-73
2023/06/24 15:03:33;;;;;;;7.30;4.60;;;;;;;24.31;100.00;102244.81;5052963;28;20243;-74
2023/06/24 15:05:59;;;;;;;8.90;4.33;;;;;;;23.90;100.00;102192.28;5051756;28;20187;-73
2023/06/24 15:08:26;;;;;;;5.80;2.93;;;;;;;25.02;100.00;102316.91;5051838;28;20187;-70
2023/06/24 15:10:51;;;;;;;5.77;3.60;;;;;;;24.59;100.00;102271.22;5054451;28;20215;-71
2023/06/24 15:13:17;;;;;;;9.80;3.50;;;;;;;24.74;100.00;102300.72;5052099;28;20497;-78
2023/06/24 15:15:42;;;;;;;11.93;4.50;;;;;;;24.09;100.00;102193.56;5054330;28;20488;-76
2023/06/24 15:18:08;;;;;;;4.50;3.40;;;;;;;24.91;100.00;102319.78;5052154;28;20229;-79
2023/06/24 15:20:33;;;;;;;5.00;3.93;;;;;;;23.69;100.00;102139.09;5050321;28;20214;-78
2023/06/24 15:22:59;;;;;;;5.53;3.40;;;;;;;24.10;100.00;102197.16;5051318;28;20276;-80
2023/06/24 15:25:24;;;;;;;5.40;4.00;;;;;;;22.74;100.00;101961.34;5051670;28;20568;-76
2023/06/24 15:27:50;;;;;;;6.23;4.13;;;;;;;23.67;100.00;102131.13;5051623;28;20652;-80
2023/06/24 15:30:16;;;;;;;6.57;4.20;;;;;;;24.92;100.00;102314.06;5051033;28;21771;-81
2023/06/24 15:32:42;;;;;;;9.20;6.73;;;;;;;21.98;100.00;101881.75;5054076;28;20622;-81
2023/06/24 15:35:08;;;;;;;5.43;4.93;;;;;;;22.37;100.00;101958.34;5051944;28;20565;-78
2023/06/24 15:37:33;;;;;;;6.50;5.00;;;;;;;24.16;100.00;102196.13;5052211;28;20553;-82
2023/06/24 15:39:59;;;;;;;6.20;3.90;;;;;;;23.86;100.00;102130.81;5051317;28;20190;-86
2023/06/24 15:42:24;;;;;;;5.40;3.93;;;;;;;24.34;100.00;102238.81;5056428;28;20724;-83
2023/06/24 15:44:52;;;;;;;5.73;3.63;;;;;;;25.13;100.00;102323.31;5051807;28;20183;-93
2023/06/24 15:47:17;;;;;;;4.80;3.17;;;;;;;20.80;100.00;101695.31;5052770;28;20230;-80
2023/06/24 15:49:43;;;;;;;7.63;4.60;;;;;;;24.49;100.00;102257.38;5083688;28;20481;-80
2023/06/24 15:52:08;;;;;;;5.90;5.17;;;;;;;23.82;100.00;102154.34;5050671;28;20219;-77
2023/06/24 15:54:34;;;;;;;4.30;3.70;;;;;;;24.08;100.00;102208.38;5051361;28;20210;-82
2023/06/24 15:56:59;;;;;;;4.70;3.70;;;;;;;24.91;100.00;102306.94;5052660;28;20198;-75
2023/06/24 15:59:24;;;;;;;5.00;3.90;;;;;;;24.97;100.00;102305.88;5053274;28;20670;-76
2023/06/24 16:01:50;;;;;;;3.90;3.37;;;;;;;24.78;100.00;102304.59;5052342;28;20643;-74
2023/06/24 16:04:15;;;;;;;4.73;4.00;;;;;;;24.44;100.00;102288.31;5051834;28;20239;-79
2023/06/24 16:06:41;;;;;;;7.27;3.90;;;;;;;24.70;100.00;102302.31;5052554;28;25153;-73
2023/06/24 16:09:06;;;;;;;7.53;4.50;;;;;;;24.64;100.00;102289.63;5051067;28;24377;-74
2023/06/24 16:11:32;;;;;;;15.90;6.33;;;;;;;24.53;100.00;102245.66;5049755;28;20725;-73
2023/06/24 16:14:10;;;;;;;9.40;7.80;;;;;;;24.54;100.00;102258.25;5051854;28;20383;-71
2023/06/24 16:16:35;;;;;;;10.90;8.20;;;;;;;24.68;100.00;102275.13;5046796;28;20199;-71
2023/06/24 16:19:01;;;;;;;15.53;8.63;;;;;;;24.63;100.00;102268.78;5052543;28;20444;-69
2023/06/24 16:21:27;;;;;;;8.27;6.20;;;;;;;24.68;100.00;102261.44;5049025;28;20693;-75
2023/06/24 16:23:52;;;;;;;18.90;8.57;;;;;;;24.83;100.00;102271.72;5050823;28;20207;-70
2023/06/24 16:26:17;;;;;;;11.33;6.93;;;;;;;24.45;100.00;102240.63;5048084;28;20499;-72
2023/06/24 16:28:43;;;;;;;12.70;8.67;;;;;;;24.79;100.00;102298.00;5049571;28;20278;-72
2023/06/24 16:31:08;;;;;;;11.47;8.30;;;;;;;24.76;100.00;102282.06;5047555;28;20215;-72
2023/06/24 16:33:34;;;;;;;11.73;7.67;;;;;;;24.81;100.00;102284.84;5050672;28;20195;-68
2023/06/24 16:36:00;;;;;;;7.80;4.47;;;;;;;24.67;100.00;102324.78;5048600;28;20674;-69
2023/06/24 16:38:25;;;;;;;6.00;5.00;;;;;;;24.87;100.00;102316.75;5051586;28;20467;-68
2023/06/24 16:40:51;;;;;;;10.97;6.87;;;;;;;24.69;100.00;102276.78;5051128;28;20695;-78
2023/06/24 16:43:16;;;;;;;8.43;6.53;;;;;;;24.62;100.00;102261.63;5050147;28;20207;-68
2023/06/24 16:45:41;;;;;;;8.17;5.90;;;;;;;24.94;100.00;102313.81;5048862;28;21007;-70
2023/06/24 16:48:07;;;;;;;7.97;5.07;;;;;;;24.72;100.00;102276.25;5051372;28;20188;-76
2023/06/24 16:50:34;;;;;;;11.87;6.30;;;;;;;24.32;100.00;102194.38;5046206;28;20195;-75
2023/06/24 16:53:00;;;;;;;6.70;5.13;;;;;;;24.42;100.00;102218.34;5050204;28;20206;-71
2023/06/24 16:55:26;;;;;;;6.93;5.13;;;;;;;24.83;100.00;102281.88;5049231;28;20941;-71
2023/06/24 16:57:51;;;;;;;7.07;5.53;;;;;;;24.66;100.00;102232.59;5050848;28;20433;-73
2023/06/24 17:00:17;;;;;;;8.40;5.20;;;;;;;25.18;100.00;102312.41;5050453;28;20190;-70
2023/06/24 17:02:42;;;;;;;7.87;5.20;;;;;;;24.89;100.00;102265.19;5050702;28;20248;-69
2023/06/24 17:05:08;;;;;;;10.37;5.53;;;;;;;24.76;100.00;102251.88;5049620;28;20660;-69
2023/06/24 17:07:33;;;;;;;13.60;4.87;;;;;;;24.83;100.00;102241.53;5048551;28;20211;-70
2023/06/24 17:09:59;;;;;;;7.17;4.80;;;;;;;26.15;100.00;102301.22;5047025;28;20608;-72
2023/06/24 17:12:24;;;;;;;12.63;5.20;;;;;;;30.71;100.00;102156.63;5047284;28;20860;-73
2023/06/24 17:14:50;;;;;;;10.30;4.77;;;;;;;32.90;100.00;102179.97;5050464;28;21093;-75
2023/06/24 17:17:15;;;;;;;5.33;4.37;;;;;;;33.77;100.00;102241.56;5049647;28;20191;-73
2023/06/24 17:19:40;;;;;;;6.20;4.43;;;;;;;33.11;100.00;102180.25;5046718;28;20183;-76
2023/06/24 17:22:09;;;;;;;13.83;4.83;;;;;;;32.09;100.00;102250.22;5048769;28;20609;-74
2023/06/24 17:24:34;;;;;;;5.67;3.93;;;;;;;28.74;100.00;102170.72;5049746;28;20176;-74
2023/06/24 17:26:59;;;;;;;4.40;3.97;;;;;;;27.69;100.00;102258.19;5048849;28;20812;-77
2023/06/24 17:29:25;;;;;;;17.00;3.90;;;;;;;26.69;100.00;102280.78;5051683;28;20640;-73
2023/06/24 17:31:50;;;;;;;4.00;3.50;;;;;;;26.09;100.00;102272.06;5047081;28;20207;-72
2023/06/24 17:34:16;;;;;;;6.33;3.87;;;;;;;25.76;100.00;102243.84;5051094;28;20274;-71
2023/06/24 17:36:41;;;;;;;3.87;3.27;;;;;;;25.66;100.00;102282.25;5047780;28;20182;-73
2023/06/24 17:39:06;;;;;;;4.00;3.40;;;;;;;25.48;100.00;102278.03;5050353;28;20194;-71
2023/06/24 17:41:32;;;;;;;6.20;3.60;;;;;;;25.50;100.00;102273.09;5047269;28;20203;-71
2023/06/24 17:43:57;;;;;;;7.43;4.30;;;;;;;25.69;100.00;102271.56;5048225;28;20577;-70
2023/06/24 17:46:23;;;;;;;4.20;3.07;;;;;;;25.97;100.00;102230.22;5050460;28;20184;-72
2023/06/24 17:48:48;;;;;;;7.73;4.50;;;;;;;25.96;100.00;102294.56;5048964;28;22296;-69
2023/06/24 17:51:13;;;;;;;9.63;3.70;;;;;;;25.31;100.00;102275.44;5051162;28;20541;-72
2023/06/24 17:53:39;;;;;;;4.80;3.70;;;;;;;23.51;100.00;102041.66;5057731;28;20238;-70
2023/06/24 17:56:04;;;;;;;4.50;3.60;;;;;;;24.72;100.00;102220.56;5054021;28;20186;-74
2023/06/24 17:58:30;;;;;;;4.67;2.93;;;;;;;24.80;100.00;102250.28;5054450;28;20195;-72
2023/06/24 18:00:55;;;;;;;4.53;3.30;;;;;;;23.52;100.00;102037.84;5053700;28;20226;-71
2023/06/24 18:03:23;;;;;;;4.90;3.47;;;;;;;25.08;100.00;102300.47;5054101;28;20626;-70
2023/06/24 18:05:49;;;;;;;3.73;3.10;;;;;;;26.27;100.00;102213.00;5051969;28;20191;-74
2023/06/24 18:08:14;;;;;;;6.27;3.70;;;;;;;28.24;100.00;102272.06;5052679;28;20904;-72
2023/06/24 18:10:41;;;;;;;6.57;3.60;;;;;;;25.92;100.00;102289.59;5051845;28;20211;-72
2023/06/24 18:13:06;;;;;;;5.17;3.30;;;;;;;24.85;100.00;102287.91;5053929;28;20180;-77
2023/06/24 18:15:31;;;;;;;10.43;3.20;;;;;;;24.07;100.00;102214.94;5052893;28;20463;-73
2023/06/24 18:17:57;;;;;;;4.60;3.50;;;;;;;23.84;100.00;102199.59;5048993;28;20215;-71
2023/06/24 18:20:22;;;;;;;3.83;3.40;;;;;;;23.05;100.00;102105.94;5051258;28;20717;-74
2023/06/24 18:22:48;;;;;;;4.20;3.13;;;;;;;23.08;100.00;102108.16;5050161;28;20207;-74
2023/06/24 18:25:13;;;;;;;4.87;3.67;;;;;;;22.88;100.00;102084.03;5053963;28;20187;-73
2023/06/24 18:27:41;;;;;;;5.93;4.17;;;;;;;24.11;100.00;102283.78;5051979;28;20199;-80
2023/06/24 18:30:08;;;;;;;6.33;3.87;;;;;;;23.40;100.00;102188.59;5050270;28;20282;-81
2023/06/24 18:32:34;;;;;;;5.67;4.00;;;;;;;22.92;100.00;102135.28;5049743;28;20465;-75
2023/06/24 18:35:00;;;;;;;7.13;3.70;;;;;;;23.40;100.00;102229.66;5053016;28;20437;-74
2023/06/24 18:37:25;;;;;;;4.07;3.50;;;;;;;23.56;100.00;102249.03;5053390;28;20675;-73
2023/06/24 18:39:50;;;;;;;3.80;3.33;;;;;;;23.00;100.00;102197.00;5051007;28;20191;-72
2023/06/24 18:42:16;;;;;;;5.03;3.73;;;;;;;23.54;100.00;102264.88;5049213;28;21705;-76
2023/06/24 18:44:41;;;;;;;5.10;3.33;;;;;;;23.52;100.00;102289.78;5053915;28;20194;-72
2023/06/24 18:47:07;;;;;;;6.60;3.47;;;;;;;23.45;100.00;102284.47;5050102;28;20183;-73
2023/06/24 18:49:32;;;;;;;4.43;3.40;;;;;;;23.15;100.00;102262.09;5054863;28;20202;-71
2023/06/24 18:51:57;;;;;;;7.40;3.10;;;;;;;23.00;100.00;102238.06;5051060;28;21165;-71
2023/06/24 18:54:24;;;;;;;4.60;3.37;;;;;;;22.58;100.00;102186.41;5054142;28;20201;-71
2023/06/24 18:56:50;;;;;;;5.30;3.87;;;;;;;23.26;100.00;102284.97;5051938;28;21049;-72
2023/06/24 18:59:15;;;;;;;5.30;3.60;;;;;;;23.16;100.00;102288.38;5052338;28;20441;-75
2023/06/24 19:01:45;;;;;;;4.40;3.80;;;;;;;22.53;100.00;102214.47;5049049;28;20217;-78
2023/06/24 19:04:11;;;;;;;4.77;4.27;;;;;;;22.84;100.00;102277.13;5051926;28;20202;-78
2023/06/24 19:06:36;;;;;;;5.90;4.37;;;;;;;22.76;100.00;102268.22;5049634;28;20446;-79
2023/06/24 19:09:02;;;;;;;4.83;3.93;;;;;;;22.86;100.00;102292.22;5052432;28;20639;-77
2023/06/24 19:11:27;;;;;;;5.20;3.57;;;;;;;22.85;100.00;102293.28;5050891;28;20203;-75
2023/06/24 19:13:53;;;;;;;5.93;4.47;;;;;;;22.00;100.00;102179.28;5053426;28;20187;-84
2023/06/24 19:16:18;;;;;;;5.97;4.20;;;;;;;22.64;100.00;102303.00;5051900;28;20195;-77
2023/06/24 19:18:44;;;;;;;9.20;4.33;;;;;;;22.05;100.00;102218.47;5053191;28;20203;-81
2023/06/24 19:21:09;;;;;;;7.77;4.13;;;;;;;21.90;100.00;102231.81;5050911;28;20216;-79
2023/06/24 19:23:35;;;;;;;7.83;3.90;;;;;;;22.46;100.00;102308.69;5053188;28;20609;-75
2023/06/24 19:26:00;;;;;;;5.50;4.07;;;;;;;21.78;100.00;102220.88;5054510;28;20202;-78
2023/06/24 19:28:26;;;;;;;3.73;3.40;;;;;;;20.87;100.00;102064.13;5052079;28;20272;-82
2023/06/24 19:30:51;;;;;;;5.43;4.13;;;;;;;18.89;100.00;101754.88;5052798;28;20218;-81
2023/06/24 19:33:16;;;;;;;6.73;3.93;;;;;;;20.08;100.00;101972.59;5049774;28;20194;-82
2023/06/24 19:35:42;;;;;;;4.50;4.10;;;;;;;20.84;100.00;102065.44;5051773;28;20187;-76
2023/06/24 19:38:07;;;;;;;5.70;4.10;;;;;;;19.45;100.00;101912.41;5052735;28;20191;-77
2023/06/24 19:40:33;;;;;;;5.90;4.00;;;;;;;22.19;100.00;102331.09;5050003;28;20280;-78
2023/06/24 19:42:58;;;;;;;6.50;4.00;;;;;;;19.83;100.00;102005.44;5051675;28;20275;-83
2023/06/24 19:45:24;;;;;;;7.27;4.10;;;;;;;21.50;100.00;102322.66;5051186;28;20188;-81
2023/06/24 19:47:51;;;;;;;6.33;4.03;;;;;;;20.72;100.00;102196.28;5051275;28;20274;-77
2023/06/24 19:50:17;;;;;;;6.40;4.50;;;;;;;20.78;100.00;102219.06;5049672;28;20191;-80
2023/06/24 19:52:44;;;;;;;9.93;4.47;;;;;;;21.11;100.00;102307.72;5049762;28;20466;-79
2023/06/24 19:55:09;;;;;;;5.90;4.47;;;;;;;19.59;100.00;102053.50;5054182;28;20197;-80
2023/06/24 19:57:39;;;;;;;7.50;4.50;;;;;;;20.80;100.00;102284.25;5050259;28;20446;-85
2023/06/24 20:00:08;;;;;;;5.40;4.00;;;;;;;19.54;100.00;102126.81;5051707;28;20717;-83
2023/06/24 20:02:34;;;;;;;6.37;3.90;;;;;;;19.75;100.00;102143.75;5052424;28;20969;-79
2023/06/24 20:05:00;;;;;;;6.00;4.27;;;;;;;19.17;100.00;102118.63;5050010;28;20496;-78
2023/06/24 20:07:25;;;;;;;6.50;3.97;;;;;;;19.53;100.00;102200.53;5049017;28;20180;-81
2023/06/24 20:09:51;;;;;;;6.30;4.00;;;;;;;21.53;100.00;102532.41;5049429;28;20195;-77
2023/06/24 20:12:17;;;;;;;5.43;3.90;;;;;;;17.79;100.00;101887.91;5052350;28;20207;-74
2023/06/24 20:14:42;;;;;;;5.80;3.97;;;;;;;19.58;100.00;102225.16;5053064;28;20197;-77
2023/06/24 20:17:08;;;;;;;5.97;3.90;;;;;;;21.18;100.00;102549.41;5052337;28;20264;-75
2023/06/24 20:19:33;;;;;;;5.60;3.63;;;;;;;19.91;100.00;102380.03;5052435;28;20763;-73
2023/06/24 20:21:59;;;;;;;5.60;4.50;;;;;;;19.23;100.00;102282.00;5051583;28;20211;-75
2023/06/24 20:24:25;;;;;;;9.47;5.10;;;;;;;21.36;100.00;102589.53;5049008;28;20260;-79
2023/06/24 20:26:50;;;;;;;6.90;4.93;;;;;;;17.61;100.00;101989.03;5048573;28;20195;-79
2023/06/24 20:29:16;;;;;;;5.57;4.27;;;;;;;17.95;100.00;102071.94;5046681;28;20538;-76
2023/06/24 20:31:41;;;;;;;7.80;4.57;;;;;;;20.80;100.00;102567.88;5049779;28;20203;-81
2023/06/24 20:34:07;;;;;;;6.70;4.97;;;;;;;18.14;100.00;102157.06;5048672;28;20190;-77
2023/06/24 20:36:33;;;;;;;5.97;4.80;;;;;;;18.05;100.00;102142.03;5048714;28;20194;-75
2023/06/24 20:38:58;;;;;;;7.13;5.07;;;;;;;17.76;100.00;102152.41;5050183;28;20534;-76
2023/06/24 20:41:27;;;;;;;7.73;4.30;;;;;;;19.63;100.00;102404.97;5049183;28;20207;-85
2023/06/24 20:43:54;;;;;;;6.23;4.53;;;;;;;18.00;100.00;102153.56;5050639;28;20216;-76
2023/06/24 20:46:20;;;;;;;6.83;4.20;;;;;;;19.14;100.00;102420.97;5050897;28;20436;-81